Terminal Aerodrome Forecast
Issued by NWS

Home | Current Version | Previous Version | Text Only | Print | Product List | Glossary Off
Versions: 1 2 3 4 5 6 7 8 9 10 11 12 13 14 15

435
FTUS43 KICT 062333
TAFCNU
TAF
KCNU 062333Z 0700/0724 34007KT P6SM OVC250
     FM070300 01004KT P6SM OVC120
     FM071300 06006KT P6SM OVC080
     FM071800 06009KT P6SM -SN VCSH SCT035 OVC050
     FM072200 01010KT 5SM -SN BR OVC030=

USA.gov is the U.S. government's official web portal to all federal, state and local government web resources and services.